Tiempo atmosférico en la estación meteorológica de Morales del Toro, Zamora (710 m.)



Fecha
DESCASC
Temp. máxima en grados centígrados (hora)
DESCASC
Temp. mínima en grados centígrados (hora)
DESCASC
Temp. media en grados centígrados
DESCASC
Racha de viento máxima en m/sg (hora)
DESCASC
Velocidad máxima media en intervalos de 10 minutos(hora)
DESCASC
Precipitaciones diarias en mm
DESCASC
Precipitaciones de 00:00 a 06:00 en mm
DESCASC
Precipitaciones de 06:00 a 12:00 en mm
DESCASC
Precipitaciones de 12:00 a 18:00 en mm
DESCASC
Precipitaciones de 18:00 a 24:00 en mm
DESCASC
06-07-2020 34.1 (17:50) 15.8 (06:20) 24.9 12.22 (21:50) 8.61 (22:20) 0 0 0 0 0
05-07-2020 35.3 (17:50) 14.4 (06:10) 24.8 7.5 (01:00) 5.28 (01:10) 0 0 0 0 0
04-07-2020 33.9 (19:50) 10.6 (06:10) 22.3 6.94 (20:10) 4.72 (20:10) 0 0 0 0 0
03-07-2020 29.4 (18:50) 9.5 (07:00) 19.4 9.44 (00:10) 6.67 (00:20) 0 0 0 0 0
02-07-2020 27.6 (17:40) 12.5 (00:00) 20.1 11.94 (23:40) 8.33 (23:50) 0 0 0 0 0
01-07-2020 31.5 (17:50) 16.5 (00:00) 24 13.06 (18:00) 8.89 (18:00) 0 0 0 0 0
30-06-2020 35.4 (17:30) 14.6 (00:00) 25 11.39 (19:10) 7.22 (19:20) 0 0 0 0 0
29-06-2020 33.4 (18:50) 13 (00:00) 23.2 9.17 (14:20) 5.56 (23:50) 0 0 0 0 0
28-06-2020 31.6 (18:20) 12.9 (00:00) 22.3 8.89 (18:40) 6.11 (20:40) 0 0 0 0 0
27-06-2020 27.9 (18:30) 12.9 (00:00) 20.4 11.39 (15:00) 6.94 (09:20) 0 0 0 0 0
26-06-2020 27.5 (16:00) 14.1 (00:00) 20.8 11.39 (18:00) 8.61 (19:10) 0 0 0 0 0
25-06-2020 32.1 (18:00) 13.9 (00:00) 23 11.94 (19:10) 7.5 (19:00) 0.4 0.4 0 0 0
24-06-2020 28.8 (16:10) 17.4 (00:00) 23.1 11.67 (18:30) 7.5 (22:30) 0.4 0 0 0 0.4
23-06-2020 37.6 (17:10) 14 (00:00) 25.8 9.17 (23:59) 4.72 (03:40) 0 0 0 0 0
22-06-2020 34.7 (18:30) 13.4 (00:00) 24.1 8.33 (15:40) 5.83 (02:00) 0 0 0 0 0
21-06-2020 31.7 (18:50) 11.6 (00:00) 21.7 7.78 (23:30) 5.83 (23:40) 0 0 0 0 0
20-06-2020 30.4 (17:30) 9.8 (00:00) 20.1 10.56 (18:00) 6.39 (20:10) 0 0 0 0 0
19-06-2020 28 (19:00) 7.8 (00:00) 17.9 9.44 (18:30) 6.11 (19:10) 0 0 0 0 0
18-06-2020 25.9 (17:50) 9.4 (06:00) 17.6 8.06 (17:20) 4.72 (18:50) 0 0 0 0 0
17-06-2020 23 (17:00) 8.7 (00:00) 15.8 9.17 (23:40) 5.83 (23:40) 0 0 0 0 0
16-06-2020 22.7 (18:00) 10.9 (00:00) 16.8 17.5 (14:40) 11.39 (14:40) 0.2 0 0 0.2 0
15-06-2020 22.4 (15:20) 9 (00:00) 15.7 11.39 (19:30) 7.22 (19:20) 0 0 0 0 0
14-06-2020 22.3 (16:10) 6.4 (00:00) 14.3 11.39 (13:20) 7.5 (16:40) 0 0 0 0 0
13-06-2020 18.4 (17:30) 8.1 (00:00) 13.3 12.22 (17:40) 8.33 (17:50) 0.2 0.2 0 0 0
12-06-2020 18.5 (16:20) 9 (00:00) 13.8 18.06 (16:00) 12.22 (16:00) 5.8 0 0.6 0.2 5
11-06-2020 20.9 (18:00) 10.6 (00:00) 15.8 18.06 (16:20) 13.33 (16:30) 0 0 0 0 0

Gráficas

Temp. máximas Temp. mínimas Temp. medias Precipitaciones Rachas de viento máximas Velocidades máximas media en intervalos de 10 minutos

Datos horarios

Fecha y hora oficial Temperatura (ºC) Velocidad del viento (km/h) Dirección del viento Racha (km/h) Dirección de racha Precipitación (mm) Presión (hPa) Tendencia (hPa) Humedad (%)
2020-07-10 23:00:00 21.1 25 Sudoeste 41 Sur 0 -- -- 64
2020-07-10 22:00:00 23.9 30 Sudoeste 43 Sudoeste 0 -- -- 56
2020-07-10 21:00:00 27.8 30 Sur 42 Sur 0 -- -- 45
2020-07-10 20:00:00 32 12 Sudoeste 26 Sudoeste 0 -- -- 30
2020-07-10 19:00:00 32.2 16 Sudoeste 27 Sudoeste 0 -- -- 30
2020-07-10 18:00:00 32.7 8 Sur 27 Sudoeste 0 -- -- 29
2020-07-10 17:00:00 32.9 12 Oeste 27 Sudoeste 0 -- -- 30
2020-07-10 16:00:00 31.7 11 Sudoeste 26 Sudoeste 0 -- -- 30
2020-07-10 15:00:00 30.8 12 Sur 30 Sudoeste 0 -- -- 33
2020-07-10 14:00:00 29.9 13 Sur 27 Sudoeste 0 -- -- 38
2020-07-10 13:00:00 27.8 14 Sur 27 Sur 0 -- -- 41
2020-07-10 12:00:00 25.5 12 Sur 20 Sur 0 -- -- 50
2020-07-10 11:00:00 23 7 Sur 18 Sudoeste 0 -- -- 60
2020-07-10 10:00:00 20.5 9 Sur 13 Sur 0 -- -- 69
2020-07-10 09:00:00 18.7 6 Sur 10 Sudoeste 0 -- -- 76
2020-07-10 08:00:00 16.4 3 Este 11 Sur 0 -- -- 84
2020-07-10 07:00:00 14.6 9 Sur 14 Sur 0 -- -- 89
2020-07-10 06:00:00 14.4 9 Sudoeste 19 Sur 0 -- -- 87
2020-07-10 05:00:00 13.9 9 Sur 15 Sur 0 -- -- 88
2020-07-10 04:00:00 15.2 14 Sur 19 Sur 0 -- -- 84
2020-07-10 03:00:00 15.4 11 Sur 16 Sur 0 -- -- 84
2020-07-10 02:00:00 16.3 12 Sur 18 Sur 0 -- -- 81
2020-07-10 01:00:00 18.4 11 Sur 22 Sudoeste 0 -- -- 73
2020-07-10 00:00:00 19.2 10 Sudoeste 33 Oeste 0 -- -- 74
2020-07-09 23:00:00 22 21 Oeste 31 Sudoeste 0 -- -- 59
2020-07-09 22:00:00 22.8 19 Sur 36 Sudoeste 0 -- -- 50
2020-07-09 21:00:00 21.3 23 Sudoeste 44 Sudoeste 0 -- -- 60
2020-07-09 20:00:00 27.7 18 Sudoeste 33 Sudoeste 0 -- -- 38
2020-07-09 19:00:00 31.4 20 Sudeste 31 Sudeste 0 -- -- 29
2020-07-09 18:00:00 32 12 Sur 19 Sudeste 0 -- -- 29
2020-07-09 17:00:00 31.1 8 Sudeste 31 Nordeste 0 -- -- 34
2020-07-09 16:00:00 33.5 12 Este 23 Sudeste 0 -- -- 31
2020-07-09 15:00:00 32.6 12 Sudoeste 26 Oeste 0 -- -- 32
2020-07-09 14:00:00 31.2 8 Noroeste 17 Oeste 0 -- -- 35
2020-07-09 13:00:00 29.3 7 Oeste 14 Nordeste 0 -- -- 39
2020-07-09 12:00:00 26.7 7 Norte 13 Norte 0 -- -- 47
2020-07-09 11:00:00 25.4 5 Norte 11 Sudoeste 0 -- -- 50
2020-07-09 10:00:00 24.4 6 Sudoeste 19 Sudoeste 0 -- -- 50
2020-07-09 09:00:00 20.7 13 Sur 21 Sudoeste 0 -- -- 63
2020-07-09 08:00:00 16.1 10 Sur 22 Sur 0 -- -- 78
2020-07-09 07:00:00 14.6 9 Sur 14 Sur 0 -- -- 83
2020-07-09 06:00:00 16 9 Sur 12 Sur 0 -- -- 76
2020-07-09 05:00:00 16.2 6 Sur 14 Sur 0 -- -- 77
2020-07-09 04:00:00 16.7 7 Sur 13 Sur 0 -- -- 77
2020-07-09 03:00:00 17.2 15 Sur 22 Sudoeste 0 -- -- 74
2020-07-09 02:00:00 18.5 20 Sudoeste 29 Sudoeste 0 -- -- 69
2020-07-09 01:00:00 19.2 17 Sudoeste 33 Sudoeste 0 -- -- 68
2020-07-09 00:00:00 20.7 28 Sur 42 Sur 0 -- -- 64
2020-07-08 23:00:00 20.5 21 Sur 43 Sur 0 -- -- 68
2020-07-08 22:00:00 20.4 28 Sur 45 Sur 0 -- -- 66
2020-07-08 21:00:00 19 26 Sudoeste 51 Noroeste 8.2 -- -- 69
2020-07-08 20:00:00 30.1 10 Este 26 Este 0 -- -- 30
2020-07-08 19:00:00 35 19 Noroeste 40 Noroeste 0 -- -- 19
2020-07-08 18:00:00 36.5 24 Noroeste 41 Noroeste 0 -- -- 19
2020-07-08 17:00:00 37.9 27 Oeste 49 Noroeste 0 -- -- 17
2020-07-08 16:00:00 37.4 27 Oeste 47 Oeste 0 -- -- 19
2020-07-08 15:00:00 35.9 25 Sudoeste 36 Sudoeste 0 -- -- 21
2020-07-08 14:00:00 35.7 17 Sudoeste 27 Oeste 0 -- -- 21
2020-07-08 13:00:00 33.5 10 Oeste 22 Sudoeste 0 -- -- 24
2020-07-08 12:00:00 29.6 8 Oeste 15 Sudoeste 0 -- -- 31
2020-07-08 11:00:00 26.8 8 Sudoeste 14 Sudoeste 0 -- -- 36
2020-07-08 10:00:00 22.7 4 Sur 9 Sur 0 -- -- 46
2020-07-08 09:00:00 20 4 Sur 13 Este 0 -- -- 53
2020-07-08 08:00:00 17.2 8 Este 13 Nordeste 0 -- -- 63
2020-07-08 07:00:00 18.1 8 Sur 17 Sur 0 -- -- 58
2020-07-08 06:00:00 18.3 13 Sur 18 Sudoeste 0 -- -- 58
2020-07-08 05:00:00 19.4 8 Sur 18 Sur 0 -- -- 53
2020-07-08 04:00:00 20.1 13 Sur 22 Sur 0 -- -- 50
2020-07-08 03:00:00 20.6 18 Sur 23 Sur 0 -- -- 48
2020-07-08 02:00:00 20.4 16 Sur 20 Sur 0 -- -- 47
2020-07-08 01:00:00 21.4 12 Sur 17 Sur 0 -- -- 42
2020-07-08 00:00:00 24.4 3 Sudoeste 12 Sudeste 0 -- -- 27
2020-07-07 23:00:00 26.3 11 Sudeste 13 Sudeste 0 -- -- 23
2020-07-07 22:00:00 29.7 6 Nordeste 19 Nordeste 0 -- -- 18
2020-07-07 21:00:00 32.6 15 Nordeste 29 Este 0 -- -- 18
2020-07-07 20:00:00 35 18 Nordeste 30 Nordeste 0 -- -- 20
2020-07-07 19:00:00 35.7 17 Nordeste 31 Nordeste 0 -- -- 18
2020-07-07 18:00:00 36 17 Nordeste 27 Norte 0 -- -- 19
2020-07-07 17:00:00 36.1 12 Nordeste 24 Nordeste 0 -- -- 19
2020-07-07 16:00:00 35.5 10 Nordeste 24 Nordeste 0 -- -- 23
2020-07-07 15:00:00 35 9 Norte 21 Nordeste 0 -- -- 27
2020-07-07 14:00:00 33.6 9 Noroeste 19 Sudoeste 0 -- -- 28
2020-07-07 13:00:00 31 10 Sudoeste 22 Sudoeste 0 -- -- 30
2020-07-07 12:00:00 27.1 8 Sur 19 Sur 0 -- -- 36
2020-07-07 11:00:00 23.7 6 Sur 16 Sur 0 -- -- 43
2020-07-07 10:00:00 20.2 11 Sur 18 Sur 0 -- -- 49
2020-07-07 09:00:00 17.2 10 Sur 21 Sur 0 -- -- 56
2020-07-07 08:00:00 15 8 Sur 15 Sur 0 -- -- 62
2020-07-07 07:00:00 12.7 6 Sur 8 Sur 0 -- -- 71
2020-07-07 06:00:00 12.9 3 Sur 5 Sudoeste 0 -- -- 71
2020-07-07 05:00:00 13.1 2 Sur 10 Sur 0 -- -- 70
2020-07-07 04:00:00 14.5 9 Sur 16 Sur 0 -- -- 64
2020-07-07 03:00:00 15.6 14 Sur 23 Sudoeste 0 -- -- 64
2020-07-07 02:00:00 16.7 17 Sudoeste 32 Sudoeste 0 -- -- 59
2020-07-07 01:00:00 17.9 20 Sudoeste 33 Sur 0 -- -- 58
2020-07-07 00:00:00 19.7 28 Sudoeste 38 Sudoeste 0 -- -- 58
2020-07-06 23:00:00 21.9 27 Sudoeste 44 Sudoeste 0 -- -- 49
2020-07-06 22:00:00 24.1 28 Sudoeste 44 Sudoeste 0 -- -- 45
2020-07-06 21:00:00 27.7 29 Sudoeste 40 Sudoeste 0 -- -- 38
2020-07-06 20:00:00 30.9 25 Sudoeste 39 Sudoeste 0 -- -- 35
2020-07-06 19:00:00 33.2 18 Sur 30 Sur 0 -- -- 33
2020-07-06 18:00:00 33.4 12 Sur 24 Sudoeste 0 -- -- 32
2020-07-06 17:00:00 33.7 8 Sur 24 Sudoeste 0 -- -- 32
2020-07-06 16:00:00 33.4 15 Sudoeste 25 Sudoeste 0 -- -- 34
2020-07-06 15:00:00 32 9 Sur 25 Sudoeste 0 -- -- 36
2020-07-06 14:00:00 31 13 Sur 30 Sudoeste 0 -- -- 36
2020-07-06 13:00:00 29.9 14 Sur 27 Sur 0 -- -- 37
2020-07-06 12:00:00 27.4 17 Sudoeste 28 Sur 0 -- -- 42
2020-07-06 11:00:00 24.8 20 Sudoeste 30 Sudoeste 0 -- -- 47
2020-07-06 10:00:00 23.7 17 Sur 32 Sudoeste 0 -- -- 50
2020-07-06 09:00:00 21.3 19 Sudoeste 27 Sudoeste 0 -- -- 57
2020-07-06 08:00:00 19 10 Sudoeste 15 Sudoeste 0 -- -- 64
2020-07-06 07:00:00 16.5 7 Sur 12 Sur 0 -- -- 75
2020-07-06 06:00:00 16.5 8 Sur 20 Sudoeste 0 -- -- 75
2020-07-06 05:00:00 18.7 16 Sudoeste 22 Sudoeste 0 -- -- 67
2020-07-06 04:00:00 19.1 6 Sur 24 Sudoeste 0 -- -- 67
2020-07-06 03:00:00 21 13 Sudoeste 29 Sur 0 -- -- 61
2020-07-06 02:00:00 22.4 21 Sur 30 Sur 0 -- -- 57
2020-07-06 01:00:00 21.8 12 Sur 18 Sur 0 -- -- 58
2020-07-06 00:00:00 22.4 11 Sur 21 Sur 0 -- -- 49
2020-07-05 23:00:00 25.6 9 Sur 12 Sudeste 0 -- -- 42
2020-07-05 22:00:00 28.6 6 Sudeste 10 Sudeste 0 -- -- 34
2020-07-05 21:00:00 33.5 4 Sur 20 Sudeste 0 -- -- 26
2020-07-05 20:00:00 34.6 6 Este 18 Sur 0 -- -- 24
2020-07-05 19:00:00 35 6 Sudeste 15 Sudeste 0 -- -- 23
2020-07-05 18:00:00 34.9 4 Sudeste 21 Este 0 -- -- 23
2020-07-05 17:00:00 34.5 13 Este 24 Este 0 -- -- 23
2020-07-05 16:00:00 34.2 7 Noroeste 18 Sur 0 -- -- 24
2020-07-05 15:00:00 32.5 9 Sudoeste 20 Sur 0 -- -- 25
2020-07-05 14:00:00 32.6 5 Sur 22 Sur 0 -- -- 27
2020-07-05 13:00:00 31.3 12 Sur 23 Sudoeste 0 -- -- 29
2020-07-05 12:00:00 28.6 9 Sur 21 Sur 0 -- -- 33
2020-07-05 11:00:00 25.9 3 Sudoeste 11 Sudoeste 0 -- -- 39
2020-07-05 10:00:00 22.8 6 Sur 13 Sur 0 -- -- 46
2020-07-05 09:00:00 20.1 6 Sur 10 Sur 0 -- -- 53
2020-07-05 08:00:00 16.5 6 Sur 10 Sur 0 -- -- 64
2020-07-05 07:00:00 14.7 5 Sudeste 11 Este 0 -- -- 67
2020-07-05 06:00:00 14.9 3 Sudeste 21 Sur 0 -- -- 66
2020-07-05 05:00:00 18.3 15 Sur 23 Sur 0 -- -- 56
2020-07-05 04:00:00 17.6 5 Sur 17 Sur 0 -- -- 59
2020-07-05 03:00:00 18.8 10 Sudoeste 21 Sudoeste 0 -- -- 55
2020-07-05 02:00:00 19.7 13 Sudoeste 26 Sur 0 -- -- 52
2020-07-05 01:00:00 20.9 18 Sudoeste 27 Sur 0 -- -- 47
2020-07-05 00:00:00 18.2 16 Sur 23 Sur 0 -- -- 49
2020-07-04 23:00:00 21.8 13 Sur 17 Sur 0 -- -- 40
2020-07-04 22:00:00 24.9 8 Sur 17 Sudeste 0 -- -- 31
2020-07-04 21:00:00 29.8 12 Sudeste 25 Sudeste 0 -- -- 25
2020-07-04 20:00:00 32 11 Sudeste 20 Sudeste 0 -- -- 23
2020-07-04 19:00:00 32 7 Sur 22 Sur 0 -- -- 22
2020-07-04 18:00:00 32.9 7 Sur 22 Sur 0 -- -- 19
2020-07-04 17:00:00 32.3 9 Sur 19 Sudoeste 0 -- -- 18
2020-07-04 16:00:00 30.7 8 Este 18 Sudeste 0 -- -- 21
2020-07-04 15:00:00 29.8 9 Sudeste 22 Sur 0 -- -- 24
2020-07-04 14:00:00 29.5 9 Oeste 16 Sudoeste 0 -- -- 24
2020-07-04 13:00:00 27 4 Sudoeste 16 Sudoeste 0 -- -- 28
2020-07-04 12:00:00 25.1 7 Sur 19 Sur 0 -- -- 32
2020-07-04 11:00:00 23.3 9 Sur 18 Sudoeste 0 -- -- 30
2020-07-04 10:00:00 19.9 8 Sur 15 Sur 0 -- -- 41
2020-07-04 09:00:00 16.9 8 Sur 14 Sudeste 0 -- -- 55
2020-07-04 08:00:00 13.5 7 Sur 15 Sur 0 -- -- 70
2020-07-04 07:00:00 10.6 9 Sur 15 Sudeste 0 -- -- 81
2020-07-04 06:00:00 10.9 10 Sur 13 Sur 0 -- -- 81
2020-07-04 05:00:00 12 9 Sur 16 Sur 0 -- -- 75
2020-07-04 04:00:00 13.4 9 Sur 14 Sudoeste 0 -- -- 68
2020-07-04 03:00:00 14.7 10 Sur 19 Sur 0 -- -- 62
2020-07-04 02:00:00 13.8 16 Sur 20 Sur 0 -- -- 56
2020-07-04 01:00:00 14.6 10 Sur 17 Sur 0 -- -- 52
2020-07-04 00:00:00 15.6 12 Sur 19 Sur 0 -- -- 51
2020-07-03 23:00:00 17 10 Sur 16 Sur 0 -- -- 47
2020-07-03 22:00:00 21.5 8 Sur 15 Sudeste 0 -- -- 35
2020-07-03 21:00:00 26.6 9 Sudeste 16 Sudeste 0 -- -- 25
2020-07-03 20:00:00 28.7 6 Sudeste 19 Sudeste 0 -- -- 22
2020-07-03 19:00:00 29.1 7 Sur 17 Sur 0 -- -- 22
2020-07-03 18:00:00 29 8 Sudeste 20 Nordeste 0 -- -- 23
2020-07-03 17:00:00 27.6 13 Sudeste 31 Sur 0 -- -- 27
2020-07-03 16:00:00 27.8 5 Sudoeste 19 Sudeste 0 -- -- 27
2020-07-03 15:00:00 26.1 10 Sur 22 Sur 0 -- -- 32
2020-07-03 14:00:00 24.4 8 Sur 25 Sur 0 -- -- 37
2020-07-03 13:00:00 22.7 9 Sudeste 23 Sudeste 0 -- -- 44
2020-07-03 12:00:00 20.6 11 Sur 22 Sur 0 -- -- 52
2020-07-03 11:00:00 19.2 13 Sudoeste 23 Sudoeste 0 -- -- 56
2020-07-03 10:00:00 17.1 15 Sur 27 Sudoeste 0 -- -- 62
2020-07-03 09:00:00 14.9 19 Sudoeste 26 Sur 0 -- -- 68
2020-07-03 08:00:00 13.2 4 Sur 13 Sur 0 -- -- 74
2020-07-03 07:00:00 9.5 2 Sudeste 8 Sudeste 0 -- -- 88
2020-07-03 06:00:00 10 3 Sur 7 Sur 0 -- -- 87
2020-07-03 05:00:00 10.2 2 Sudeste 9 Sur 0 -- -- 85
2020-07-03 04:00:00 11.1 3 Sur 18 Sur 0 -- -- 83
2020-07-03 03:00:00 12.2 15 Sur 29 Sur 0 -- -- 79
2020-07-03 02:00:00 12.4 20 Sur 29 Sur 0 -- -- 77
2020-07-03 01:00:00 13.6 21 Sur 34 Sur 0 -- -- 72
2020-07-03 00:00:00 14.5 25 Sur 43 Sur 0 -- -- 71
2020-07-02 23:00:00 17.8 24 Sur 35 Sur 0 -- -- 61
2020-07-02 22:00:00 21 14 Nordeste 27 Nordeste 0 -- -- 36
2020-07-02 21:00:00 24.4 18 Nordeste 31 Nordeste 0 -- -- 27
2020-07-02 20:00:00 26.5 17 Nordeste 38 Nordeste 0 -- -- 26
2020-07-02 19:00:00 26.8 22 Nordeste 40 Nordeste 0 -- -- 26
2020-07-02 18:00:00 27.5 21 Nordeste 39 Nordeste 0 -- -- 30
2020-07-02 17:00:00 27.1 21 Nordeste 40 Nordeste 0 -- -- 29
2020-07-02 16:00:00 27.1 20 Nordeste 41 Nordeste 0 -- -- 33
2020-07-02 15:00:00 26.1 18 Nordeste 37 Norte 0 -- -- 36
2020-07-02 14:00:00 25.1 17 Nordeste 31 Nordeste 0 -- -- 41
2020-07-02 13:00:00 24.4 10 Nordeste 30 Nordeste 0 -- -- 46
2020-07-02 12:00:00 23 12 Nordeste 26 Nordeste 0 -- -- 48
2020-07-02 11:00:00 21.6 8 Nordeste 18 Norte 0 -- -- 55
2020-07-02 10:00:00 20.2 6 Nordeste 13 Este 0 -- -- 59
2020-07-02 09:00:00 19.4 4 Nordeste 7 Este 0 -- -- 65
2020-07-02 08:00:00 17.5 0 Calma 7 Este 0 -- -- 72
2020-07-02 07:00:00 12.5 5 Este 11 Nordeste 0 -- -- 90
2020-07-02 06:00:00 13.3 4 Sudeste 9 Sur 0 -- -- 90
2020-07-02 05:00:00 14.5 6 Sur 9 Sudeste 0 -- -- 88
2020-07-02 04:00:00 14.7 5 Sudeste 8 Sudeste 0 -- -- 82
2020-07-02 03:00:00 15.4 5 Este 11 Sudeste 0 -- -- 72
2020-07-02 02:00:00 16.7 9 Este 13 Este 0 -- -- 68
2020-07-02 01:00:00 18.1 5 Sudeste 23 Este 0 -- -- 61
2020-07-02 00:00:00 20.2 18 Este 24 Este 0 -- -- 53
2020-07-01 23:00:00 21.4 12 Este 26 Nordeste 0 -- -- 50
2020-07-01 22:00:00 24.8 19 Nordeste 35 Nordeste 0 -- -- 42
2020-07-01 21:00:00 27.9 23 Nordeste 40 Nordeste 0 -- -- 37
2020-07-01 20:00:00 29.6 21 Nordeste 37 Nordeste 0 -- -- 32
2020-07-01 19:00:00 31 26 Nordeste 42 Nordeste 0 -- -- 27
2020-07-01 18:00:00 31.3 32 Nordeste 47 Nordeste 0 -- -- 25
2020-07-01 17:00:00 31.2 28 Nordeste 44 Nordeste 0 -- -- 25
2020-07-01 16:00:00 31.2 30 Nordeste 45 Norte 0 -- -- 27
2020-07-01 15:00:00 31 27 Nordeste 45 Nordeste 0 -- -- 26
2020-07-01 14:00:00 30.1 23 Nordeste 37 Nordeste 0 -- -- 33
2020-07-01 13:00:00 28.4 21 Nordeste 32 Nordeste 0 -- -- 38
2020-07-01 12:00:00 26.6 15 Nordeste 24 Norte 0 -- -- 48
2020-07-01 11:00:00 25 11 Norte 22 Norte 0 -- -- 59
2020-07-01 10:00:00 23.3 9 Nordeste 19 Norte 0 -- -- 65
2020-07-01 09:00:00 21.7 10 Nordeste 14 Nordeste 0 -- -- 72
2020-07-01 08:00:00 18.6 8 Este 12 Nordeste 0 -- -- 76
2020-07-01 07:00:00 16.6 8 Este 13 Este 0 -- -- 79
2020-07-01 06:00:00 18 12 Nordeste 21 Nordeste 0 -- -- 69
2020-07-01 05:00:00 18.5 13 Este 18 Este 0 -- -- 64
2020-07-01 04:00:00 19.2 16 Este 20 Este 0 -- -- 62
2020-07-01 03:00:00 19.3 12 Nordeste 17 Nordeste 0 -- -- 61
2020-07-01 02:00:00 22 13 Sur 22 Sudeste 0 -- -- 50
2020-07-01 01:00:00 22.7 15 Este 26 Este 0 -- -- 50
2020-07-01 00:00:00 23.6 9 Este 28 Sudeste 0 -- -- 49
2020-06-30 23:00:00 25.5 19 Sudeste 29 Sudeste 0 -- -- 44
2020-06-30 22:00:00 28.5 14 Este 25 Nordeste 0 -- -- 24
2020-06-30 21:00:00 32.1 18 Nordeste 40 Nordeste 0 -- -- 21
2020-06-30 20:00:00 33.7 24 Nordeste 41 Nordeste 0 -- -- 23
2020-06-30 19:00:00 35 14 Nordeste 28 Nordeste 0 -- -- 23
2020-06-30 18:00:00 34.6 9 Norte 31 Norte 0 -- -- 26
2020-06-30 17:00:00 34.7 14 Este 28 Nordeste 0 -- -- 27
2020-06-30 16:00:00 33.7 8 Nordeste 33 Nordeste 0 -- -- 26
2020-06-30 15:00:00 34.1 17 Nordeste 35 Nordeste 0 -- -- 26
2020-06-30 14:00:00 33.5 10 Norte 22 Norte 0 -- -- 30
2020-06-30 13:00:00 31.9 7 Oeste 15 Oeste 0 -- -- 34
2020-06-30 12:00:00 29.1 6 Sur 13 Sur 0 -- -- 39
2020-06-30 11:00:00 26.8 5 Sudoeste 17 Sudoeste 0 -- -- 41
2020-06-30 10:00:00 -- 12 Sudoeste 19 Sudoeste 0 -- -- --
2020-06-30 09:00:00 21.6 10 Sur 18 Sur 0 -- -- 46
2020-06-30 08:00:00 17.6 5 Sur 10 Sur 0 -- -- 56
2020-06-30 07:00:00 14.6 0 Calma 9 Sudeste 0 -- -- 64
2020-06-30 06:00:00 16.4 3 Sur 11 Sur 0 -- -- 58
2020-06-30 05:00:00 17.8 7 Sur 20 Sur 0 -- -- 56
2020-06-30 04:00:00 18 12 Sur 22 Sudoeste 0 -- -- 62
2020-06-30 03:00:00 18.3 15 Sur 22 Sur 0 -- -- 72
2020-06-30 02:00:00 19.5 12 Sur 21 Sur 0 -- -- 70
2020-06-30 01:00:00 19.8 13 Sur 22 Sudoeste 0 -- -- 68
2020-06-30 00:00:00 22.8 19 Sur 30 Sudoeste 0 -- -- 57
2020-06-29 23:00:00 23.1 13 Sur 22 Sudeste 0 -- -- 50
2020-06-29 22:00:00 26.7 14 Sudeste 18 Sudeste 0 -- -- 41
2020-06-29 21:00:00 30.7 12 Sudeste 18 Sudeste 0 -- -- 33
2020-06-29 20:00:00 32.2 8 Sudeste 26 Este 0 -- -- 30
2020-06-29 19:00:00 33 14 Norte 30 Nordeste 0 -- -- 29
2020-06-29 18:00:00 32.8 17 Norte 27 Nordeste 0 -- -- 28
2020-06-29 17:00:00 32.3 8 Norte 30 Nordeste 0 -- -- 31
2020-06-29 16:00:00 31.2 10 Norte 23 Nordeste 0 -- -- 33
2020-06-29 15:00:00 30.5 5 Noroeste 33 Sur 0 -- -- 37
2020-06-29 14:00:00 28 11 Este 18 Nordeste 0 -- -- 43
2020-06-29 13:00:00 26.7 12 Este 23 Norte 0 -- -- 48
2020-06-29 12:00:00 24.9 5 Sudeste 13 Nordeste 0 -- -- 54
2020-06-29 11:00:00 23 5 Este 11 Nordeste 0 -- -- 60
2020-06-29 10:00:00 21.6 3 Oeste 9 Sudoeste 0 -- -- 65
2020-06-29 09:00:00 19 7 Sur 12 Sur 0 -- -- 74
2020-06-29 08:00:00 15.5 8 Sur 13 Sur 0 -- -- 84
2020-06-29 07:00:00 13.2 8 Sur 10 Sudeste 0 -- -- 92
2020-06-29 06:00:00 13.7 5 Sur 7 Sur 0 -- -- 90
2020-06-29 05:00:00 14.7 5 Sur 8 Sur 0 -- -- 87
2020-06-29 04:00:00 15.4 3 Sudoeste 12 Sudeste 0 -- -- 83
2020-06-29 03:00:00 17.3 9 Sudeste 14 Sudeste 0 -- -- 75
2020-06-29 02:00:00 17.7 10 Sudeste 15 Sudeste 0 -- -- 74
2020-06-29 01:00:00 19 12 Sudeste 20 Este 0 -- -- 69
2020-06-29 00:00:00 20.2 11 Este 23 Este 0 -- -- 64
2020-06-28 23:00:00 22.8 17 Este 23 Este 0 -- -- 56
2020-06-28 22:00:00 24.9 18 Nordeste 31 Nordeste 0 -- -- 50
2020-06-28 21:00:00 28.3 19 Nordeste 30 Nordeste 0 -- -- 41
2020-06-28 20:00:00 30.6 19 Nordeste 32 Norte 0 -- -- 36
2020-06-28 19:00:00 31 21 Nordeste 32 Nordeste 0 -- -- 34
2020-06-28 18:00:00 31.3 14 Norte 30 Nordeste 0 -- -- 32
2020-06-28 17:00:00 30.4 16 Nordeste 28 Nordeste 0 -- -- 33
2020-06-28 16:00:00 29.7 13 Nordeste 31 Nordeste 0 -- -- 35
2020-06-28 15:00:00 28.9 13 Nordeste 32 Norte 0 -- -- 36
2020-06-28 14:00:00 27.1 12 Nordeste 31 Norte 0 -- -- 42
2020-06-28 13:00:00 25.7 6 Nordeste 23 Nordeste 0 -- -- 47
2020-06-28 12:00:00 24.1 11 Norte 19 Nordeste 0 -- -- 51
2020-06-28 11:00:00 21.9 6 Nordeste 16 Este 0 -- -- 61
2020-06-28 10:00:00 19.9 6 Nordeste 12 Nordeste 0 -- -- 67
2020-06-28 09:00:00 18.6 3 Nordeste 8 Nordeste 0 -- -- 74
2020-06-28 08:00:00 18.4 0 Calma 4 Este 0 -- -- 75
2020-06-28 07:00:00 13.2 3 Este 7 Nordeste 0 -- -- 93
2020-06-28 06:00:00 13.8 5 Nordeste 9 Este 0 -- -- 89
2020-06-28 05:00:00 14.6 7 Este 9 Este 0 -- -- 85
2020-06-28 04:00:00 15.1 4 Nordeste 13 Nordeste 0 -- -- 83
2020-06-28 03:00:00 16.3 10 Nordeste 14 Nordeste 0 -- -- 80
2020-06-28 02:00:00 16.8 8 Nordeste 12 Este 0 -- -- 77
2020-06-28 01:00:00 17.4 9 Este 14 Nordeste 0 -- -- 72
2020-06-28 00:00:00 18.9 7 Este 14 Nordeste 0 -- -- 67
2020-06-27 23:00:00 20.3 11 Nordeste 19 Nordeste 0 -- -- 62
2020-06-27 22:00:00 22.5 16 Nordeste 32 Nordeste 0 -- -- 55
2020-06-27 21:00:00 25.5 21 Nordeste 32 Nordeste 0 -- -- 46
2020-06-27 20:00:00 26 17 Nordeste 33 Nordeste 0 -- -- 45
2020-06-27 19:00:00 27.3 20 Nordeste 34 Nordeste 0 -- -- 42
2020-06-27 18:00:00 27.7 19 Nordeste 36 Nordeste 0 -- -- 41
2020-06-27 17:00:00 26.9 21 Nordeste 39 Nordeste 0 -- -- 43
2020-06-27 16:00:00 26.7 20 Nordeste 37 Nordeste 0 -- -- 45
2020-06-27 15:00:00 25.9 23 Nordeste 41 Nordeste 0 -- -- 46
2020-06-27 14:00:00 24.6 20 Nordeste 37 Norte 0 -- -- 48
2020-06-27 13:00:00 23.7 19 Norte 31 Norte 0 -- -- 51
2020-06-27 12:00:00 21.9 14 Nordeste 32 Nordeste 0 -- -- 56
2020-06-27 11:00:00 19.8 18 Nordeste 34 Nordeste 0 -- -- 63
2020-06-27 10:00:00 19.3 21 Nordeste 33 Nordeste 0 -- -- 64
2020-06-27 09:00:00 17.8 23 Nordeste 30 Nordeste 0 -- -- 71
2020-06-27 08:00:00 16 9 Norte 15 Norte 0 -- -- 80
2020-06-27 07:00:00 13 6 Noroeste 13 Norte 0 -- -- 91
2020-06-27 06:00:00 13.6 8 Norte 15 Norte 0 -- -- 89
2020-06-27 05:00:00 14.3 6 Norte 15 Norte 0 -- -- 84
2020-06-27 04:00:00 15.1 12 Nordeste 27 Nordeste 0 -- -- 81
2020-06-27 03:00:00 15.7 9 Nordeste 19 Nordeste 0 -- -- 78
2020-06-27 02:00:00 16.8 17 Nordeste 26 Nordeste 0 -- -- 74
2020-06-27 01:00:00 17.8 13 Nordeste 22 Nordeste 0 -- -- 69
2020-06-27 00:00:00 18.9 14 Nordeste 22 Nordeste 0 -- -- 63
2020-06-26 23:00:00 20.1 15 Nordeste 30 Nordeste 0 -- -- 56
2020-06-26 22:00:00 21.8 20 Nordeste 36 Nordeste 0 -- -- 50
2020-06-26 21:00:00 24.7 29 Nordeste 40 Nordeste 0 -- -- 39
2020-06-26 20:00:00 26 24 Nordeste 40 Nordeste 0 -- -- 37
2020-06-26 19:00:00 26.7 26 Nordeste 41 Nordeste 0 -- -- 32
2020-06-26 18:00:00 24.8 30 Nordeste 41 Nordeste 0 -- -- 34
2020-06-26 17:00:00 25.9 26 Nordeste 41 Nordeste 0 -- -- 27
2020-06-26 16:00:00 27.5 27 Norte 41 Norte 0 -- -- 26
2020-06-26 15:00:00 26.2 24 Norte 39 Nordeste 0 -- -- 35
2020-06-26 14:00:00 23.8 19 Norte 35 Nordeste 0 -- -- 46
2020-06-26 13:00:00 21.3 23 Nordeste 36 Nordeste 0 -- -- 58
2020-06-26 12:00:00 20.9 16 Norte 26 Norte 0 -- -- 59
2020-06-26 11:00:00 20.5 13 Norte 28 Norte 0 -- -- 63
2020-06-26 10:00:00 18.2 20 Norte 27 Nordeste 0 -- -- 73
2020-06-26 09:00:00 17.2 17 Nordeste 30 Nordeste 0 -- -- 78
2020-06-26 08:00:00 15.6 19 Nordeste 27 Nordeste 0 -- -- 85
2020-06-26 07:00:00 14.1 8 Nordeste 14 Nordeste 0 -- -- 92
2020-06-26 06:00:00 15.1 5 Nordeste 14 Nordeste 0 -- -- 89
2020-06-26 05:00:00 15.8 11 Nordeste 17 Nordeste 0 -- -- 85
2020-06-26 04:00:00 16.6 10 Nordeste 14 Nordeste 0 -- -- 76
2020-06-26 03:00:00 17.1 4 Nordeste 13 Nordeste 0 -- -- 70
2020-06-26 02:00:00 18.3 8 Nordeste 9 Nordeste 0 -- -- 64
2020-06-26 01:00:00 19.9 6 Nordeste 9 Este 0 -- -- 55
2020-06-26 00:00:00 22.9 2 Norte 12 Nordeste 0 -- -- 48
2020-06-25 23:00:00 23.6 3 Sudeste 12 Este 0 -- -- 46
2020-06-25 22:00:00 25.6 8 Nordeste 27 Nordeste 0 -- -- 41
2020-06-25 21:00:00 28.8 17 Nordeste 36 Nordeste 0 -- -- 35
2020-06-25 20:00:00 30.4 23 Nordeste 43 Nordeste 0 -- -- 33
2020-06-25 19:00:00 31.1 27 Nordeste 41 Nordeste 0 -- -- 32
2020-06-25 18:00:00 32.1 25 Nordeste 41 Norte 0 -- -- 31
2020-06-25 17:00:00 30.8 21 Este 37 Nordeste 0 -- -- 33
2020-06-25 16:00:00 31.8 18 Nordeste 33 Norte 0 -- -- 33
2020-06-25 15:00:00 30.5 21 Nordeste 39 Nordeste 0 -- -- 37
2020-06-25 14:00:00 29.6 19 Nordeste 28 Nordeste 0 -- -- 40
2020-06-25 13:00:00 27.5 5 Este 14 Nordeste 0 -- -- 44
2020-06-25 12:00:00 24.2 5 Sur 10 Sudoeste 0 -- -- 53
2020-06-25 11:00:00 21.4 3 Sudoeste 10 Oeste 0 -- -- 65
2020-06-25 10:00:00 21.4 4 Sudoeste 13 Sur 0 -- -- 67
2020-06-25 09:00:00 17.8 9 Sur 17 Sudeste 0 -- -- 84
2020-06-25 08:00:00 15 14 Sur 17 Sur 0 -- -- 91
2020-06-25 07:00:00 14.3 10 Sur 14 Este 0 -- -- 90
2020-06-25 06:00:00 14.5 8 Sur 21 Nordeste 0 -- -- 90
2020-06-25 05:00:00 14.7 5 Sudeste 11 Sudoeste 0 -- -- 91
2020-06-25 04:00:00 15 4 Sur 11 Norte 0.4 -- -- 91
2020-06-25 03:00:00 15.5 4 Sudoeste 6 Sudoeste 0 -- -- 88
2020-06-25 02:00:00 16.4 5 Sur 15 Sudoeste 0 -- -- 84
2020-06-25 01:00:00 16.8 5 Sudoeste 14 Sur 0 -- -- 81
2020-06-25 00:00:00 18.6 4 Noroeste 26 Sur 0 -- -- 72
2020-06-24 23:00:00 19.6 22 Sur 37 Sur 0 -- -- 69
2020-06-24 22:00:00 22.8 14 Sudeste 27 Sudeste 0 -- -- 51
2020-06-24 21:00:00 21.1 13 Sur 19 Este 0 -- -- 59
2020-06-24 20:00:00 22.3 11 Sudeste 31 Este 0 -- -- 53
2020-06-24 19:00:00 21.3 13 Este 42 Nordeste 0.4 -- -- 60
2020-06-24 18:00:00 25 13 Nordeste 36 Norte 0 -- -- 42
2020-06-24 17:00:00 26 8 Noroeste 20 Oeste 0 -- -- 46
2020-06-24 16:00:00 28.6 12 Sudoeste 26 Sudoeste 0 -- -- 36
2020-06-24 15:00:00 25.2 25 Sudoeste 35 Oeste 0 -- -- 45
2020-06-24 14:00:00 25.9 13 Oeste 21 Oeste 0 -- -- 46
2020-06-24 13:00:00 26.3 16 Noroeste 25 Noroeste 0 -- -- 44
2020-06-24 12:00:00 26.1 12 Sudoeste 21 Sudoeste 0 -- -- 45
2020-06-24 11:00:00 23.8 6 Oeste 21 Oeste 0 -- -- 54
2020-06-24 10:00:00 23.2 7 Sudoeste 12 Sudoeste 0 -- -- 50
2020-06-24 09:00:00 18.6 2 Norte 11 Sudoeste 0 -- -- 63
2020-06-24 08:00:00 18.5 8 Sur 12 Sur 0 -- -- 59
2020-06-24 07:00:00 17.4 6 Sur 12 Sur 0 -- -- 62
2020-06-24 06:00:00 17.6 10 Sur 17 Sur 0 -- -- 61
2020-06-24 05:00:00 17.8 6 Sur 12 Sudeste 0 -- -- 60
2020-06-24 04:00:00 18.7 5 Norte 13 Sudoeste 0 -- -- 55
2020-06-24 03:00:00 21.4 5 Sudoeste 20 Sudoeste 0 -- -- 46
2020-06-24 02:00:00 22.3 15 Sudoeste 21 Sudoeste 0 -- -- 44
2020-06-24 01:00:00 21.8 11 Sur 24 Sur 0 -- -- 44
2020-06-24 00:00:00 25.8 17 Sur 33 Sur 0 -- -- 35
2020-06-23 23:00:00 25.6 12 Sur 15 Sur 0 -- -- 37
2020-06-23 22:00:00 28 10 Sudeste 29 Sudeste 0 -- -- 31
2020-06-23 21:00:00 29.8 16 Este 29 Este 0 -- -- 28
2020-06-23 20:00:00 32.5 10 Nordeste 15 Norte 0 -- -- 25
2020-06-23 19:00:00 33.7 12 Norte 26 Nordeste 0 -- -- 22
2020-06-23 18:00:00 35.4 10 Nordeste 28 Nordeste 0 -- -- 20
2020-06-23 17:00:00 36.8 6 Sudoeste 26 Nordeste 0 -- -- 18
2020-06-23 16:00:00 35.8 12 Norte 30 Noroeste 0 -- -- 20
2020-06-23 15:00:00 35.7 12 Nordeste 21 Norte 0 -- -- 20
2020-06-23 14:00:00 34.1 7 Nordeste 17 Norte 0 -- -- 24
2020-06-23 13:00:00 31.9 5 Nordeste 13 Sudoeste 0 -- -- 31
2020-06-23 12:00:00 29.1 4 Norte 12 Sur 0 -- -- 36
2020-06-23 11:00:00 26.3 4 Sudoeste 13 Este 0 -- -- 42
2020-06-23 10:00:00 22.9 4 Nordeste 8 Nordeste 0 -- -- 51
2020-06-23 09:00:00 20.1 4 Sur 11 Sur 0 -- -- 59
2020-06-23 08:00:00 16.4 7 Sudeste 11 Sudeste 0 -- -- 71
2020-06-23 07:00:00 14 9 Sudeste 13 Sur 0 -- -- 80
2020-06-23 06:00:00 14.8 4 Este 8 Sudeste 0 -- -- 74
2020-06-23 05:00:00 16.1 6 Sur 15 Sur 0 -- -- 70
2020-06-23 04:00:00 16 15 Sur 20 Sur 0 -- -- 72
2020-06-23 03:00:00 17.6 15 Sur 19 Sur 0 -- -- 67
2020-06-23 02:00:00 19.3 12 Sur 19 Sur 0 -- -- 61
2020-06-23 01:00:00 19.3 12 Sur 18 Sur 0 -- -- 57
2020-06-23 00:00:00 18.3 14 Sur 20 Sur 0 -- -- 54
2020-06-22 23:00:00 20.1 16 Sur 20 Sur 0 -- -- 48
2020-06-22 22:00:00 24.2 14 Sur 17 Sur 0 -- -- 36
2020-06-22 21:00:00 32.1 6 Sur 16 Sur 0 -- -- 22
2020-06-22 20:00:00 32.8 10 Sudeste 18 Sudeste 0 -- -- 21
2020-06-22 19:00:00 33.7 8 Sudeste 17 Sudoeste 0 -- -- 21
2020-06-22 18:00:00 33.4 9 Sudoeste 26 Sudoeste 0 -- -- 21
2020-06-22 17:00:00 33.6 8 Sudoeste 27 Sudoeste 0 -- -- 22
2020-06-22 16:00:00 31.9 13 Sudoeste 30 Sur 0 -- -- 25
2020-06-22 15:00:00 31.1 14 Sudoeste 27 Sudoeste 0 -- -- 28
2020-06-22 14:00:00 30.1 13 Sudoeste 27 Oeste 0 -- -- 29
2020-06-22 13:00:00 27.7 14 Sudoeste 30 Sudoeste 0 -- -- 34
2020-06-22 12:00:00 26 17 Sudoeste 28 Sur 0 -- -- 38
2020-06-22 11:00:00 24.1 14 Sudoeste 25 Sur 0 -- -- 48
2020-06-22 10:00:00 21.6 11 Sudoeste 23 Sudoeste 0 -- -- 60
2020-06-22 09:00:00 18.8 14 Sur 20 Sudoeste 0 -- -- 68
2020-06-22 08:00:00 15.6 9 Sur 14 Sudoeste 0 -- -- 80
2020-06-22 07:00:00 13.8 11 Sur 22 Sur 0 -- -- 87
2020-06-22 06:00:00 13.7 8 Sur 12 Sudoeste 0 -- -- 87
2020-06-22 05:00:00 14.2 7 Sur 23 Sur 0 -- -- 85
2020-06-22 04:00:00 15.4 18 Sur 28 Sur 0 -- -- 81
2020-06-22 03:00:00 15.6 8 Sur 27 Sur 0 -- -- 81
2020-06-22 02:00:00 16.5 21 Sur 30 Sur 0 -- -- 78
2020-06-22 01:00:00 17.2 3 Sur 22 Sur 0 -- -- 75
2020-06-22 00:00:00 18 17 Sur 28 Sur 0 -- -- 71
2020-06-21 23:00:00 20.9 12 Sur 13 Sudeste 0 -- -- 49
2020-06-21 22:00:00 23.8 8 Sur 15 Sudeste 0 -- -- 39
2020-06-21 21:00:00 29 8 Sudeste 18 Este 0 -- -- 27
2020-06-21 20:00:00 30.8 10 Sudeste 25 Sudeste 0 -- -- 22
2020-06-21 19:00:00 31.4 9 Este 19 Este 0 -- -- 21
2020-06-21 18:00:00 31.1 10 Este 23 Norte 0 -- -- 21
2020-06-21 17:00:00 30.2 8 Norte 23 Nordeste 0 -- -- 22
2020-06-21 16:00:00 29.9 5 Este 23 Nordeste 0 -- -- 23
2020-06-21 15:00:00 28.3 8 Nordeste 22 Nordeste 0 -- -- 26
2020-06-21 14:00:00 27 7 Noroeste 18 Nordeste 0 -- -- 28
2020-06-21 13:00:00 24.9 9 Norte 18 Norte 0 -- -- 28
2020-06-21 12:00:00 23.3 8 Norte 17 Norte 0 -- -- 35
2020-06-21 11:00:00 21.2 4 Norte 11 Nordeste 0 -- -- 42
2020-06-21 10:00:00 19 6 Nordeste 12 Nordeste 0 -- -- 58
2020-06-21 09:00:00 16.6 11 Nordeste 16 Norte 0 -- -- 63
2020-06-21 08:00:00 14.8 5 Este 10 Nordeste 0 -- -- 74
2020-06-21 07:00:00 11.6 4 Nordeste 9 Nordeste 0 -- -- 81
2020-06-21 06:00:00 12.6 6 Nordeste 8 Nordeste 0 -- -- 74
2020-06-21 05:00:00 13.1 4 Nordeste 10 Nordeste 0 -- -- 72
2020-06-21 04:00:00 14.8 9 Nordeste 13 Nordeste 0 -- -- 65
2020-06-21 03:00:00 15.5 12 Nordeste 14 Nordeste 0 -- -- 59
2020-06-21 02:00:00 16.2 10 Nordeste 15 Nordeste 0 -- -- 54
2020-06-21 01:00:00 16.7 6 Nordeste 20 Nordeste 0 -- -- 47
2020-06-21 00:00:00 18.5 12 Nordeste 17 Nordeste 0 -- -- 42
2020-06-20 23:00:00 19.2 10 Nordeste 16 Nordeste 0 -- -- 45
2020-06-20 22:00:00 22.7 11 Nordeste 28 Nordeste 0 -- -- 34
2020-06-20 21:00:00 27.1 17 Nordeste 32 Nordeste 0 -- -- 30
2020-06-20 20:00:00 29 23 Nordeste 35 Nordeste 0 -- -- 26
2020-06-20 19:00:00 29.8 18 Nordeste 37 Norte 0 -- -- 24
2020-06-20 18:00:00 30.2 19 Nordeste 38 Nordeste 0 -- -- 24
2020-06-20 17:00:00 29.9 9 Norte 26 Norte 0 -- -- 26
2020-06-20 16:00:00 28.8 16 Norte 28 Norte 0 -- -- 27
2020-06-20 15:00:00 27.6 14 Norte 31 Norte 0 -- -- 28
2020-06-20 14:00:00 27 8 Noroeste 23 Norte 0 -- -- 31
2020-06-20 13:00:00 24.7 10 Nordeste 19 Nordeste 0 -- -- 35
2020-06-20 12:00:00 22.8 6 Nordeste 15 Nordeste 0 -- -- 44
2020-06-20 11:00:00 20.2 5 Nordeste 11 Norte 0 -- -- 52
2020-06-20 10:00:00 18.8 3 Noroeste 6 Nordeste 0 -- -- 58
2020-06-20 09:00:00 15.8 4 Sur 13 Sudeste 0 -- -- 64
2020-06-20 08:00:00 11.9 8 Sudeste 14 Sudeste 0 -- -- 77
2020-06-20 07:00:00 10.3 10 Sudeste 13 Sudeste 0 -- -- 85
2020-06-20 06:00:00 10.5 6 Sudeste 8 Sudeste 0 -- -- 85
2020-06-20 05:00:00 10.9 6 Sur 8 Sur 0 -- -- 82
2020-06-20 04:00:00 12.1 5 Sur 14 Sudeste 0 -- -- 76
2020-06-20 03:00:00 12.8 10 Este 14 Este 0 -- -- 71
2020-06-20 02:00:00 15.3 9 Sudeste 14 Sudeste 0 -- -- 62
2020-06-20 01:00:00 15.3 7 Este 19 Este 0 -- -- 59
2020-06-20 00:00:00 16.7 14 Este 16 Este 0 -- -- 52
2020-06-19 23:00:00 18.9 10 Nordeste 17 Nordeste 0 -- -- 41
2020-06-19 22:00:00 21.4 12 Nordeste 24 Nordeste 0 -- -- 37
2020-06-19 21:00:00 25.1 17 Nordeste 30 Norte 0 -- -- 31
2020-06-19 20:00:00 26.8 18 Nordeste 33 Nordeste 0 -- -- 28
2020-06-19 19:00:00 28 18 Nordeste 34 Nordeste 0 -- -- 25
2020-06-19 18:00:00 27.6 21 Norte 30 Norte 0 -- -- 23
2020-06-19 17:00:00 27.3 17 Nordeste 30 Nordeste 0 -- -- 21
2020-06-19 16:00:00 26.5 14 Nordeste 31 Norte 0 -- -- 22
2020-06-19 15:00:00 25.2 17 Nordeste 32 Norte 0 -- -- 28
2020-06-19 14:00:00 23.7 9 Nordeste 26 Nordeste 0 -- -- 39
2020-06-19 13:00:00 21.8 9 Nordeste 27 Nordeste 0 -- -- 45
2020-06-19 12:00:00 21 10 Nordeste 19 Nordeste 0 -- -- 50
2020-06-19 11:00:00 18 7 Nordeste 15 Este 0 -- -- 61
2020-06-19 10:00:00 14.9 8 Este 14 Nordeste 0 -- -- 72
2020-06-19 09:00:00 13.2 7 Este 19 Este 0 -- -- 79
2020-06-19 08:00:00 11 5 Este 6 Este 0 -- -- 86
2020-06-19 07:00:00 7.8 3 Sudeste 5 Sudeste 0 -- -- 95
2020-06-19 06:00:00 8.3 3 Sudeste 6 Sudeste 0 -- -- 93
2020-06-19 05:00:00 9.4 4 Sudeste 7 Sudeste 0 -- -- 93
2020-06-19 04:00:00 10.2 4 Este 13 Sudeste 0 -- -- 91
2020-06-19 03:00:00 11.4 12 Sur 20 Sudeste 0 -- -- 87
2020-06-19 02:00:00 12.8 13 Sudeste 29 Este 0 -- -- 79
2020-06-19 01:00:00 15.3 17 Este 25 Este 0 -- -- 57
2020-06-19 00:00:00 14.5 12 Este 17 Nordeste 0 -- -- 53
2020-06-18 23:00:00 17.1 10 Nordeste 17 Nordeste 0 -- -- 44
2020-06-18 22:00:00 19.6 12 Nordeste 22 Nordeste 0 -- -- 40
2020-06-18 21:00:00 23.7 14 Nordeste 27 Este 0 -- -- 35
2020-06-18 20:00:00 25.1 16 Nordeste 27 Nordeste 0 -- -- 32
2020-06-18 19:00:00 25.5 16 Nordeste 29 Norte 0 -- -- 31
2020-06-18 18:00:00 25.4 16 Norte 29 Nordeste 0 -- -- 31
2020-06-18 17:00:00 24.1 11 Este 28 Nordeste 0 -- -- 34
2020-06-18 16:00:00 23.9 14 Nordeste 25 Este 0 -- -- 37
2020-06-18 15:00:00 23.8 9 Nordeste 23 Nordeste 0 -- -- 38
2020-06-18 14:00:00 22.3 11 Nordeste 21 Nordeste 0 -- -- 42
2020-06-18 13:00:00 20.9 11 Nordeste 20 Este 0 -- -- 47
2020-06-18 12:00:00 19.2 7 Este 16 Nordeste 0 -- -- 51
2020-06-18 11:00:00 17.4 6 Este 14 Este 0 -- -- 62
2020-06-18 10:00:00 16.2 3 Sur 10 Sur 0 -- -- 65
2020-06-18 09:00:00 14.3 4 Sudeste 9 Sur 0 -- -- 73
2020-06-18 08:00:00 11.4 6 Este 9 Este 0 -- -- 84
2020-06-18 07:00:00 9.7 3 Sur 9 Sudeste 0 -- -- 91
2020-06-18 06:00:00 9.4 5 Este 9 Este 0 -- -- 90
2020-06-18 05:00:00 9.9 3 Sudeste 5 Sur 0 -- -- 89
2020-06-18 04:00:00 10 4 Sudoeste 14 Sur 0 -- -- 88
2020-06-18 03:00:00 10.9 12 Sur 18 Sudeste 0 -- -- 84
2020-06-18 02:00:00 11.4 13 Sur 20 Sudeste 0 -- -- 82
2020-06-18 01:00:00 13.2 13 Sudeste 25 Sudeste 0 -- -- 75
2020-06-18 00:00:00 15.2 17 Sudeste 33 Sudeste 0 -- -- 65
2020-06-17 23:00:00 16.9 12 Sudeste 18 Este 0 -- -- 52
2020-06-17 22:00:00 18.8 6 Nordeste 13 Nordeste 0 -- -- 45
2020-06-17 21:00:00 20.4 5 Este 10 Sur 0 -- -- 40
2020-06-17 20:00:00 21.2 3 Sur 16 Nordeste 0 -- -- 38
2020-06-17 19:00:00 21.9 3 Sur 14 Sudeste 0 -- -- 34
2020-06-17 18:00:00 22.1 4 Sur 21 Nordeste 0 -- -- 34
2020-06-17 17:00:00 23 12 Este 24 Este 0 -- -- 34
2020-06-17 16:00:00 22 8 Sudeste 21 Este 0 -- -- 36
2020-06-17 15:00:00 20.6 5 Sudeste 22 Este 0 -- -- 39
2020-06-17 14:00:00 20.4 6 Sudeste 17 Nordeste 0 -- -- 40
2020-06-17 13:00:00 19.4 9 Nordeste 15 Nordeste 0 -- -- 43
2020-06-17 12:00:00 18.6 7 Sudeste 19 Nordeste 0 -- -- 48
2020-06-17 11:00:00 16.9 5 Sur 17 Sur 0 -- -- 57
2020-06-17 10:00:00 14.4 10 Sudeste 15 Este 0 -- -- 66
2020-06-17 09:00:00 13.4 7 Sudeste 12 Sudeste 0 -- -- 74
2020-06-17 08:00:00 11.2 6 Este 14 Este 0 -- -- 82
2020-06-17 07:00:00 8.7 9 Nordeste 11 Nordeste 0 -- -- 87
2020-06-17 06:00:00 9 7 Nordeste 11 Este 0 -- -- 85
2020-06-17 05:00:00 10.1 8 Este 12 Nordeste 0 -- -- 82
2020-06-17 04:00:00 11.1 8 Nordeste 11 Nordeste 0 -- -- 79
2020-06-17 03:00:00 11.5 2 Este 13 Nordeste 0 -- -- 79
2020-06-17 02:00:00 11.3 8 Nordeste 12 Nordeste 0 -- -- 76
2020-06-17 01:00:00 10.9 6 Nordeste 14 Este 0 -- -- 77
2020-06-17 00:00:00 12.4 9 Sudeste 15 Este 0 -- -- 70
2020-06-16 23:00:00 13.5 6 Sudeste 28 Este 0 -- -- 63
2020-06-16 22:00:00 16.5 14 Nordeste 35 Nordeste 0 -- -- 52
2020-06-16 21:00:00 19.4 26 Nordeste 41 Nordeste 0 -- -- 47
2020-06-16 20:00:00 20.6 28 Nordeste 47 Nordeste 0 -- -- 45
2020-06-16 19:00:00 21.2 32 Nordeste 51 Nordeste 0 -- -- 42
2020-06-16 18:00:00 22.7 33 Nordeste 58 Nordeste 0 -- -- 41
2020-06-16 17:00:00 22.3 41 Nordeste 58 Nordeste 0 -- -- 40
2020-06-16 16:00:00 21.2 34 Nordeste 54 Este 0 -- -- 46
2020-06-16 15:00:00 19 27 Nordeste 63 Nordeste 0.2 -- -- 60
2020-06-16 14:00:00 21.3 27 Nordeste 42 Nordeste 0 -- -- 45
2020-06-16 13:00:00 20.4 21 Nordeste 35 Nordeste 0 -- -- 49
2020-06-16 12:00:00 19.5 19 Nordeste 31 Nordeste 0 -- -- 52
2020-06-16 11:00:00 18.1 17 Nordeste 25 Nordeste 0 -- -- 57
2020-06-16 10:00:00 16.2 12 Nordeste 22 Nordeste 0 -- -- 64
2020-06-16 09:00:00 13.9 12 Nordeste 19 Nordeste 0 -- -- 76
2020-06-16 08:00:00 13.4 7 Norte 10 Nordeste 0 -- -- 78
2020-06-16 07:00:00 10.9 8 Nordeste 17 Nordeste 0 -- -- 87
2020-06-16 06:00:00 11.8 10 Nordeste 17 Nordeste 0 -- -- 85
2020-06-16 05:00:00 12.3 8 Nordeste 11 Nordeste 0 -- -- 84
2020-06-16 04:00:00 12.5 4 Nordeste 9 Este 0 -- -- 83
2020-06-16 03:00:00 12.7 6 Este 12 Nordeste 0 -- -- 81
2020-06-16 02:00:00 12.8 8 Nordeste 19 Nordeste 0 -- -- 79
2020-06-16 01:00:00 14 12 Nordeste 25 Nordeste 0 -- -- 72
2020-06-16 00:00:00 14.6 19 Nordeste 30 Nordeste 0 -- -- 69
2020-06-15 23:00:00 15.3 19 Nordeste 33 Nordeste 0 -- -- 64
2020-06-15 22:00:00 16.1 21 Nordeste 31 Nordeste 0 -- -- 60
2020-06-15 21:00:00 17 19 Nordeste 39 Nordeste 0 -- -- 57
2020-06-15 20:00:00 18 21 Nordeste 41 Nordeste 0 -- -- 54
2020-06-15 19:00:00 20 25 Nordeste 36 Nordeste 0 -- -- 47
2020-06-15 18:00:00 20.8 25 Nordeste 36 Nordeste 0 -- -- 45
2020-06-15 17:00:00 21.7 21 Nordeste 34 Nordeste 0 -- -- 42
2020-06-15 16:00:00 22.1 18 Nordeste 35 Nordeste 0 -- -- 41
2020-06-15 15:00:00 21.7 13 Nordeste 33 Nordeste 0 -- -- 43
2020-06-15 14:00:00 19.8 12 Nordeste 29 Nordeste 0 -- -- 48
2020-06-15 13:00:00 20 13 Norte 27 Norte 0 -- -- 46
2020-06-15 12:00:00 18.1 11 Norte 21 Norte 0 -- -- 55
2020-06-15 11:00:00 15.3 11 Nordeste 20 Nordeste 0 -- -- 64
2020-06-15 10:00:00 14.6 12 Nordeste 21 Nordeste 0 -- -- 70
2020-06-15 09:00:00 13.1 13 Nordeste 19 Nordeste 0 -- -- 77
2020-06-15 08:00:00 12 3 Nordeste 4 Norte 0 -- -- 83
2020-06-15 07:00:00 9 3 Este 5 Este 0 -- -- 92
2020-06-15 06:00:00 9.3 3 Nordeste 8 Este 0 -- -- 90
2020-06-15 05:00:00 10.2 5 Sudeste 8 Este 0 -- -- 88
2020-06-15 04:00:00 11.4 5 Nordeste 9 Nordeste 0 -- -- 85
2020-06-15 03:00:00 12.5 2 Este 10 Nordeste 0 -- -- 81
2020-06-15 02:00:00 12.6 5 Nordeste 16 Este 0 -- -- 78
2020-06-15 01:00:00 13.7 11 Este 19 Este 0 -- -- 72
2020-06-15 00:00:00 14.4 13 Este 18 Nordeste 0 -- -- 69
2020-06-14 23:00:00 15.5 12 Este 24 Nordeste 0 -- -- 65
2020-06-14 22:00:00 16.6 19 Nordeste 30 Nordeste 0 -- -- 58
2020-06-14 21:00:00 17.9 21 Este 31 Nordeste 0 -- -- 53
2020-06-14 20:00:00 19.3 20 Nordeste 37 Nordeste 0 -- -- 47
2020-06-14 19:00:00 21.6 19 Nordeste 33 Nordeste 0 -- -- 42
2020-06-14 18:00:00 20.9 23 Nordeste 39 Nordeste 0 -- -- 42
2020-06-14 17:00:00 21.1 23 Nordeste 39 Nordeste 0 -- -- 40
2020-06-14 16:00:00 21.9 20 Nordeste 35 Nordeste 0 -- -- 38
2020-06-14 15:00:00 21 22 Nordeste 33 Nordeste 0 -- -- 38
2020-06-14 14:00:00 20 18 Nordeste 41 Nordeste 0 -- -- 39
2020-06-14 13:00:00 18.9 15 Nordeste 27 Nordeste 0 -- -- 44
2020-06-14 12:00:00 17.4 14 Nordeste 22 Nordeste 0 -- -- 46
2020-06-14 11:00:00 16.2 10 Nordeste 19 Nordeste 0 -- -- 52
2020-06-14 10:00:00 13.6 6 Norte 11 Norte 0 -- -- 67
2020-06-14 09:00:00 11.4 3 Noroeste 6 Noroeste 0 -- -- 73
2020-06-14 08:00:00 10.6 2 Sudoeste 9 Sur 0 -- -- 81
2020-06-14 07:00:00 6.7 4 Sudeste 7 Sur 0 -- -- 90
2020-06-14 06:00:00 7.2 0 Calma 4 Nordeste 0 -- -- 92
2020-06-14 05:00:00 7.4 0 Calma 5 Norte 0 -- -- 92
2020-06-14 04:00:00 8.2 0 Calma 8 Norte 0 -- -- 89
2020-06-14 03:00:00 8.9 4 Nordeste 7 Nordeste 0 -- -- 84
2020-06-14 02:00:00 8.9 3 Nordeste 9 Este 0 -- -- 84
2020-06-14 01:00:00 9.7 0 Calma 8 Este 0 -- -- 82
2020-06-14 00:00:00 10.5 6 Nordeste 9 Este 0 -- -- 81
2020-06-13 23:00:00 11.6 4 Este 13 Nordeste 0 -- -- 77
2020-06-13 22:00:00 13.8 10 Nordeste 23 Nordeste 0 -- -- 69
2020-06-13 21:00:00 16.3 15 Nordeste 31 Nordeste 0 -- -- 55
2020-06-13 20:00:00 17.1 18 Nordeste 35 Nordeste 0 -- -- 56
2020-06-13 19:00:00 17.5 21 Nordeste 39 Nordeste 0 -- -- 52
2020-06-13 18:00:00 16 28 Nordeste 44 Nordeste 0 -- -- 63
2020-06-13 17:00:00 17.5 19 Nordeste 37 Nordeste 0 -- -- 56
2020-06-13 16:00:00 17.5 20 Norte 31 Nordeste 0 -- -- 54
2020-06-13 15:00:00 17 22 Nordeste 36 Nordeste 0 -- -- 54
2020-06-13 14:00:00 17.6 26 Nordeste 38 Nordeste 0 -- -- 51
2020-06-13 13:00:00 17.4 23 Nordeste 38 Nordeste 0 -- -- 54
2020-06-13 12:00:00 15.1 23 Nordeste 36 Nordeste 0 -- -- 61
2020-06-13 11:00:00 13.8 25 Nordeste 38 Nordeste 0 -- -- 68
2020-06-13 10:00:00 12.6 25 Nordeste 33 Nordeste 0 -- -- 79
2020-06-13 09:00:00 11.1 25 Nordeste 36 Nordeste 0 -- -- 84
2020-06-13 08:00:00 9.6 24 Nordeste 33 Nordeste 0 -- -- 90
2020-06-13 07:00:00 8.2 22 Nordeste 29 Nordeste 0 -- -- 94
2020-06-13 06:00:00 8.4 20 Nordeste 31 Nordeste 0 -- -- 93
2020-06-13 05:00:00 8.6 21 Nordeste 28 Nordeste 0.2 -- -- 93
2020-06-13 04:00:00 9.1 14 Norte 24 Nordeste 0 -- -- 92
2020-06-13 03:00:00 9.6 14 Norte 26 Norte 0 -- -- 92
2020-06-13 02:00:00 9.7 17 Norte 27 Nordeste 0 -- -- 92
2020-06-13 01:00:00 10 20 Nordeste 33 Nordeste 0 -- -- 90
2020-06-13 00:00:00 10.5 24 Nordeste 34 Nordeste 0 -- -- 89
2020-06-12 23:00:00 11 24 Nordeste 31 Nordeste 0 -- -- 89
2020-06-12 22:00:00 11.2 24 Nordeste 34 Nordeste 0 -- -- 89
2020-06-12 21:00:00 11.4 25 Nordeste 43 Nordeste 0.6 -- -- 90
2020-06-12 20:00:00 11.3 12 Nordeste 37 Nordeste 2.2 -- -- 93
2020-06-12 19:00:00 11.4 18 Nordeste 46 Este 2.2 -- -- 90
2020-06-12 18:00:00 12.1 26 Nordeste 58 Nordeste 0.2 -- -- 81
2020-06-12 17:00:00 18 35 Nordeste 56 Nordeste 0 -- -- 52
2020-06-12 16:00:00 16.9 44 Nordeste 65 Nordeste 0 -- -- 54
2020-06-12 15:00:00 15.9 33 Nordeste 57 Nordeste 0 -- -- 64
2020-06-12 14:00:00 15.6 40 Nordeste 56 Nordeste 0 -- -- 60
2020-06-12 13:00:00 14 35 Nordeste 49 Norte 0 -- -- 66
2020-06-12 12:00:00 13 26 Nordeste 46 Norte 0 -- -- 78
2020-06-12 11:00:00 10.7 25 Nordeste 39 Nordeste 0.2 -- -- 90
2020-06-12 10:00:00 9.8 26 Norte 49 Norte 0.4 -- -- 93
2020-06-12 09:00:00 10.1 33 Norte 53 Norte 0 -- -- 86
2020-06-12 08:00:00 10.5 35 Norte 54 Norte 0 -- -- 76
2020-06-12 07:00:00 9.9 33 Norte 51 Norte 0 -- -- 77
2020-06-12 06:00:00 9.4 34 Norte 55 Norte 0 -- -- 76
2020-06-12 05:00:00 9.5 25 Norte 41 Nordeste 0 -- -- 73
2020-06-12 04:00:00 9.3 25 Norte 38 Norte 0 -- -- 71
2020-06-12 03:00:00 9 24 Norte 42 Norte 0 -- -- 69
2020-06-12 02:00:00 9.6 28 Nordeste 42 Nordeste 0 -- -- 70
2020-06-12 01:00:00 9.6 27 Nordeste 48 Nordeste 0 -- -- 66
2020-06-12 00:00:00 10.7 26 Nordeste 39 Nordeste 0 -- -- 62
2020-06-11 23:00:00 11.3 22 Nordeste 40 Nordeste 0 -- -- 62
2020-06-11 22:00:00 13.6 28 Nordeste 51 Nordeste 0 -- -- 55
2020-06-11 21:00:00 16.2 36 Nordeste 55 Nordeste 0 -- -- 43
2020-06-11 20:00:00 17.2 38 Nordeste 62 Nordeste 0 -- -- 43
2020-06-11 19:00:00 19.3 45 Nordeste 60 Nordeste 0 -- -- 43
2020-06-11 18:00:00 20.9 42 Nordeste 63 Nordeste 0 -- -- 39
2020-06-11 17:00:00 19.5 40 Nordeste 65 Norte 0 -- -- 43
2020-06-11 16:00:00 18.9 37 Nordeste 62 Norte 0 -- -- 48
2020-06-11 15:00:00 17.9 39 Norte 60 Norte 0 -- -- 54
2020-06-11 14:00:00 19 44 Norte 64 Norte 0 -- -- 54
2020-06-11 13:00:00 18.4 36 Nordeste 56 Nordeste 0 -- -- 54
2020-06-11 12:00:00 16.6 36 Nordeste 54 Nordeste 0 -- -- 60
2020-06-11 11:00:00 17.2 28 Nordeste 47 Nordeste 0 -- -- 61
2020-06-11 10:00:00 14.5 27 Nordeste 42 Norte 0 -- -- 68
2020-06-11 09:00:00 14.5 26 Nordeste 38 Nordeste 0 -- -- 66
2020-06-11 08:00:00 13.3 23 Nordeste 35 Norte 0 -- -- 68
2020-06-11 07:00:00 12.8 19 Nordeste 29 Nordeste 0 -- -- 77
2020-06-11 06:00:00 13 20 Nordeste 30 Nordeste 0 -- -- 76
2020-06-11 05:00:00 11.7 7 Nordeste 14 Nordeste 0 -- -- 81
2020-06-11 04:00:00 10.8 5 Nordeste 9 Nordeste 0 -- -- 77
2020-06-11 03:00:00 12 8 Nordeste 13 Este 0 -- -- 71
2020-06-11 02:00:00 12.5 8 Nordeste 15 Este 0 -- -- 70
2020-06-11 01:00:00 14.6 12 Este 22 Este 0 -- -- 63
2020-06-11 00:00:00 15.7 12 Este 17 Este 0 -- -- 60